createdAt,value
2018-07-19T00:01:06.232Z,4.47
2018-07-19T00:03:34.484Z,3.60
2018-07-19T00:06:02.772Z,3.97
2018-07-19T00:08:31.020Z,4.07
2018-07-19T00:10:59.280Z,4.20
2018-07-19T00:13:27.517Z,3.60
2018-07-19T00:15:55.779Z,4.20
2018-07-19T00:18:26.508Z,3.60
2018-07-19T00:20:55.913Z,3.80
2018-07-19T00:23:24.782Z,3.93
2018-07-19T00:25:53.043Z,4.40
2018-07-19T00:28:21.333Z,3.60
2018-07-19T00:30:49.593Z,3.73
2018-07-19T00:33:17.815Z,3.53
2018-07-19T00:35:46.072Z,3.60
2018-07-19T00:38:14.344Z,3.80
2018-07-19T00:40:42.385Z,3.70
2018-07-19T00:43:10.651Z,3.70
2018-07-19T00:45:38.920Z,3.27
2018-07-19T00:48:07.630Z,3.80
2018-07-19T00:50:35.913Z,3.83
2018-07-19T00:53:04.341Z,3.07
2018-07-19T00:55:32.611Z,3.63
2018-07-19T00:58:00.876Z,3.47
2018-07-19T01:00:29.119Z,3.40
2018-07-19T01:02:57.125Z,3.47
2018-07-19T01:05:25.381Z,3.67
2018-07-19T01:07:53.601Z,3.77
2018-07-19T01:10:22.526Z,3.80
2018-07-19T01:12:50.771Z,3.37
2018-07-19T01:15:19.024Z,3.50
2018-07-19T01:17:47.264Z,6.30
2018-07-19T01:20:15.527Z,4.33
2018-07-19T01:22:43.554Z,4.10
2018-07-19T01:25:11.820Z,3.37
2018-07-19T01:27:40.063Z,3.70
2018-07-19T01:30:08.159Z,3.77
2018-07-19T01:32:36.486Z,3.40
2018-07-19T01:35:04.751Z,3.50
2018-07-19T01:37:33.005Z,2.93
2018-07-19T01:40:01.377Z,3.33
2018-07-19T01:42:35.131Z,3.10
2018-07-19T01:45:03.391Z,2.87
2018-07-19T01:47:31.633Z,3.23
2018-07-19T01:49:59.884Z,3.10
2018-07-19T01:52:28.130Z,3.10
2018-07-19T01:54:56.395Z,3.07
2018-07-19T01:57:24.664Z,2.93
2018-07-19T01:59:52.896Z,2.90
2018-07-19T02:02:21.163Z,3.37
2018-07-19T02:04:49.410Z,2.90
2018-07-19T02:07:17.676Z,2.80
2018-07-19T02:09:45.907Z,2.87
2018-07-19T02:12:14.139Z,2.90
2018-07-19T02:14:42.376Z,2.80
2018-07-19T02:17:10.620Z,3.07
2018-07-19T02:19:38.872Z,2.87
2018-07-19T02:22:07.137Z,2.97
2018-07-19T02:24:35.371Z,2.87
2018-07-19T02:27:03.638Z,2.40
2018-07-19T02:29:31.860Z,2.77
2018-07-19T02:32:00.099Z,2.60
2018-07-19T02:34:28.336Z,2.50
2018-07-19T02:36:56.612Z,2.80
2018-07-19T02:39:24.844Z,2.60
2018-07-19T02:41:52.850Z,2.80
2018-07-19T02:44:21.137Z,2.60
2018-07-19T02:46:49.402Z,2.40
2018-07-19T02:49:17.632Z,2.90
2018-07-19T02:51:45.879Z,2.60
2018-07-19T02:54:14.087Z,2.80
2018-07-19T02:56:42.323Z,2.70
2018-07-19T02:59:10.554Z,2.67
2018-07-19T03:01:38.783Z,2.80
2018-07-19T03:04:07.061Z,2.70
2018-07-19T03:06:35.402Z,3.10
2018-07-19T03:09:04.019Z,2.73
2018-07-19T03:11:32.277Z,2.63
2018-07-19T03:14:00.550Z,2.60
2018-07-19T03:16:28.784Z,2.67
2018-07-19T03:18:57.048Z,3.00
2018-07-19T03:21:25.077Z,2.60
2018-07-19T03:23:53.339Z,3.00
2018-07-19T03:26:21.588Z,2.97
2018-07-19T03:28:49.828Z,2.63
2018-07-19T03:31:18.071Z,2.90
2018-07-19T03:33:46.297Z,2.80
2018-07-19T03:36:14.539Z,2.30
2018-07-19T03:38:43.545Z,2.73
2018-07-19T03:41:11.772Z,2.80
2018-07-19T03:43:40.052Z,2.60
2018-07-19T03:46:08.559Z,2.53
2018-07-19T03:48:36.779Z,2.97
2018-07-19T03:51:04.996Z,2.70
2018-07-19T03:53:33.237Z,2.57
2018-07-19T03:56:01.471Z,2.80
2018-07-19T03:58:29.496Z,3.70
2018-07-19T04:00:57.737Z,2.60
2018-07-19T04:03:25.983Z,2.80
2018-07-19T04:05:54.208Z,2.87
2018-07-19T04:08:22.494Z,3.13
2018-07-19T04:10:50.722Z,3.03
2018-07-19T04:13:18.964Z,3.33
2018-07-19T04:15:47.248Z,4.77
2018-07-19T04:18:15.488Z,2.80
2018-07-19T04:20:43.728Z,2.67
2018-07-19T04:23:11.737Z,2.57
2018-07-19T04:25:39.970Z,2.70
2018-07-19T04:28:08.317Z,3.00
2018-07-19T04:30:36.538Z,2.47
2018-07-19T04:33:05.470Z,2.53
2018-07-19T04:35:33.706Z,2.80
2018-07-19T04:38:02.024Z,2.77
2018-07-19T04:40:30.243Z,2.87
2018-07-19T04:42:58.488Z,3.00
2018-07-19T04:45:26.525Z,3.17
2018-07-19T04:47:54.779Z,2.73
2018-07-19T04:50:23.008Z,2.50
2018-07-19T04:52:51.312Z,2.83
2018-07-19T04:55:19.553Z,2.60
2018-07-19T04:57:47.792Z,2.73
2018-07-19T05:00:16.054Z,3.00
2018-07-19T05:02:44.307Z,2.63
2018-07-19T05:05:12.550Z,2.63
2018-07-19T05:07:40.803Z,2.83
2018-07-19T05:10:09.020Z,2.97
2018-07-19T05:12:37.255Z,2.80
2018-07-19T05:15:05.525Z,3.27
2018-07-19T05:17:33.768Z,3.00
2018-07-19T05:20:02.043Z,3.07
2018-07-19T05:22:30.304Z,3.53
2018-07-19T05:24:58.504Z,3.03
2018-07-19T05:27:26.858Z,3.40
2018-07-19T05:29:55.105Z,2.90
2018-07-19T05:32:23.348Z,3.50
2018-07-19T05:34:51.625Z,3.20
2018-07-19T05:37:19.983Z,3.47
2018-07-19T05:39:48.222Z,2.80
2018-07-19T05:42:16.485Z,3.43
2018-07-19T05:44:44.684Z,3.20
2018-07-19T05:47:12.975Z,3.13
2018-07-19T05:49:41.262Z,3.27
2018-07-19T05:52:09.977Z,3.37
2018-07-19T05:54:38.236Z,3.57
2018-07-19T05:57:06.461Z,3.87
2018-07-19T05:59:34.723Z,3.87
2018-07-19T06:02:02.989Z,3.73
2018-07-19T06:04:31.236Z,4.17
2018-07-19T06:06:59.596Z,3.27
2018-07-19T06:09:27.904Z,3.60
2018-07-19T06:11:56.231Z,3.90
2018-07-19T06:14:24.830Z,3.53
2018-07-19T06:16:53.967Z,4.47
2018-07-19T06:19:22.229Z,3.77
2018-07-19T06:21:50.458Z,3.47
2018-07-19T06:24:18.707Z,3.90
2018-07-19T06:26:46.968Z,4.10
2018-07-19T06:29:14.989Z,4.60
2018-07-19T06:31:43.254Z,4.40
2018-07-19T06:34:11.508Z,3.70
2018-07-19T06:36:39.735Z,4.07
2018-07-19T06:39:08.039Z,3.97
2018-07-19T06:41:36.300Z,4.37
2018-07-19T06:44:04.347Z,3.83
2018-07-19T06:46:32.606Z,4.27
2018-07-19T06:49:00.874Z,4.03
2018-07-19T06:51:29.163Z,4.00
2018-07-19T06:53:57.477Z,3.87
2018-07-19T06:56:25.739Z,4.30
2018-07-19T06:58:54.018Z,4.00
2018-07-19T07:01:22.262Z,3.80
2018-07-19T07:03:50.552Z,3.73
2018-07-19T07:06:18.780Z,3.77
2018-07-19T07:08:47.099Z,3.70
2018-07-19T07:11:15.362Z,4.13
2018-07-19T07:13:43.616Z,3.47
2018-07-19T07:16:11.862Z,3.67
2018-07-19T07:18:40.143Z,3.97
2018-07-19T07:21:08.189Z,3.70
2018-07-19T07:23:36.443Z,4.40
2018-07-19T07:26:04.691Z,3.70
2018-07-19T07:28:32.971Z,4.43
2018-07-19T07:31:01.271Z,4.10
2018-07-19T07:33:29.521Z,3.67
2018-07-19T07:35:57.784Z,3.87
2018-07-19T07:38:26.004Z,3.70
2018-07-19T07:40:54.322Z,3.63
2018-07-19T07:43:22.596Z,4.20
2018-07-19T07:45:50.841Z,4.43
2018-07-19T07:48:19.082Z,3.50
2018-07-19T07:50:47.342Z,4.07
2018-07-19T07:53:15.619Z,4.30
2018-07-19T07:55:43.875Z,3.77
2018-07-19T07:58:12.131Z,3.67
2018-07-19T08:00:40.392Z,3.90
2018-07-19T08:03:08.713Z,3.77
2018-07-19T08:05:36.990Z,3.40
2018-07-19T08:08:05.263Z,3.50
2018-07-19T08:10:33.528Z,3.70
2018-07-19T08:13:01.790Z,3.70
2018-07-19T08:15:30.063Z,4.00
2018-07-19T08:17:58.300Z,4.30
2018-07-19T08:20:26.604Z,4.60
2018-07-19T08:22:54.845Z,5.03
2018-07-19T08:25:23.130Z,5.30
2018-07-19T08:27:51.359Z,4.77
2018-07-19T08:30:19.615Z,5.40
2018-07-19T08:32:47.843Z,5.10
2018-07-19T08:35:16.160Z,5.30
2018-07-19T08:37:44.401Z,5.17
2018-07-19T08:40:13.235Z,6.20
2018-07-19T08:42:41.471Z,5.03
2018-07-19T08:45:09.718Z,5.30
2018-07-19T08:47:37.975Z,5.33
2018-07-19T08:50:06.358Z,5.70
2018-07-19T08:52:34.621Z,5.50
2018-07-19T08:55:02.861Z,5.90
2018-07-19T08:57:31.303Z,5.70
2018-07-19T08:59:59.535Z,5.30
2018-07-19T09:02:27.776Z,6.23
2018-07-19T09:04:56.044Z,5.90
2018-07-19T09:07:24.269Z,5.43
2018-07-19T09:09:53.216Z,5.83
2018-07-19T09:12:21.452Z,5.73
2018-07-19T09:14:50.399Z,5.27
2018-07-19T09:17:18.637Z,5.70
2018-07-19T09:19:46.902Z,5.17
2018-07-19T09:22:15.156Z,5.90
2018-07-19T09:24:43.724Z,5.83
2018-07-19T09:27:11.992Z,5.67
2018-07-19T09:29:40.219Z,5.70
2018-07-19T09:32:08.487Z,5.57
2018-07-19T09:34:36.720Z,6.73
2018-07-19T09:37:05.188Z,5.77
2018-07-19T09:39:33.444Z,5.73
2018-07-19T09:42:01.776Z,5.87
2018-07-19T09:44:30.026Z,5.20
2018-07-19T09:46:58.275Z,5.47
2018-07-19T09:49:26.521Z,6.97
2018-07-19T09:51:54.770Z,6.30
2018-07-19T09:54:34.382Z,6.07
2018-07-19T09:57:02.571Z,6.40
2018-07-19T09:59:30.863Z,5.80
2018-07-19T10:01:59.083Z,5.93
2018-07-19T10:04:27.324Z,5.63
2018-07-19T10:06:55.589Z,6.23
2018-07-19T10:09:23.824Z,5.77
2018-07-19T10:11:52.146Z,6.53
2018-07-19T10:14:20.371Z,6.47
2018-07-19T10:16:48.644Z,5.80
2018-07-19T10:19:16.871Z,6.30
2018-07-19T10:21:45.115Z,6.70
2018-07-19T10:24:13.377Z,8.73
2018-07-19T10:26:41.661Z,5.90
2018-07-19T10:29:09.873Z,5.77
2018-07-19T10:31:38.147Z,5.67
2018-07-19T10:34:06.398Z,5.63
2018-07-19T10:36:34.677Z,5.70
2018-07-19T10:39:02.986Z,6.20
2018-07-19T10:41:31.262Z,5.57
2018-07-19T10:43:59.491Z,5.90
2018-07-19T10:46:27.746Z,5.80
2018-07-19T10:48:56.004Z,5.50
2018-07-19T10:51:24.239Z,5.17
2018-07-19T10:53:52.458Z,5.20
2018-07-19T10:56:20.994Z,5.30
2018-07-19T10:58:49.215Z,5.07
2018-07-19T11:01:17.438Z,5.57
2018-07-19T11:03:45.668Z,5.33
2018-07-19T11:06:13.903Z,5.53
2018-07-19T11:08:42.122Z,4.87
2018-07-19T11:11:10.404Z,4.50
2018-07-19T11:13:38.622Z,5.40
2018-07-19T11:16:06.887Z,5.00
2018-07-19T11:18:35.109Z,4.87
2018-07-19T11:21:03.350Z,4.93
2018-07-19T11:23:31.781Z,4.97
2018-07-19T11:26:00.006Z,4.70
2018-07-19T11:28:28.323Z,4.37
2018-07-19T11:30:56.517Z,5.03
2018-07-19T11:33:24.780Z,3.93
2018-07-19T11:35:53.000Z,4.80
2018-07-19T11:38:21.247Z,4.30
2018-07-19T11:40:49.466Z,4.37
2018-07-19T11:43:17.684Z,3.87
2018-07-19T11:45:46.165Z,4.23
2018-07-19T11:48:14.186Z,3.73
2018-07-19T11:50:42.419Z,4.37
2018-07-19T11:53:10.645Z,4.03
2018-07-19T11:55:38.959Z,4.07
2018-07-19T11:58:07.199Z,3.50
2018-07-19T12:00:35.430Z,3.63
2018-07-19T12:03:03.728Z,3.50
2018-07-19T12:05:32.366Z,4.17
2018-07-19T12:08:00.651Z,3.60
2018-07-19T12:10:28.928Z,3.33
2018-07-19T12:12:57.168Z,3.87
2018-07-19T12:15:25.192Z,3.50
2018-07-19T12:17:53.438Z,3.73
2018-07-19T12:20:21.668Z,6.07
2018-07-19T12:22:49.912Z,4.27
2018-07-19T12:25:18.190Z,4.13
2018-07-19T12:27:46.408Z,4.40
2018-07-19T12:30:14.616Z,4.53
2018-07-19T12:32:42.851Z,4.03
2018-07-19T12:35:11.063Z,4.40
2018-07-19T12:37:39.331Z,3.93
2018-07-19T12:40:07.549Z,3.97
2018-07-19T12:42:35.786Z,3.77
2018-07-19T12:45:04.372Z,3.20
2018-07-19T12:47:32.579Z,3.60
2018-07-19T12:50:00.800Z,3.77
2018-07-19T12:52:29.095Z,3.67
2018-07-19T12:54:57.319Z,3.40
2018-07-19T12:57:25.544Z,3.20
2018-07-19T12:59:53.780Z,3.70
2018-07-19T13:02:22.039Z,3.30
2018-07-19T13:04:50.284Z,3.70
2018-07-19T13:07:18.509Z,4.10
2018-07-19T13:09:46.717Z,3.63
2018-07-19T13:12:14.931Z,4.00
2018-07-19T13:14:43.180Z,3.57
2018-07-19T13:17:11.520Z,3.73
2018-07-19T13:19:39.747Z,3.50
2018-07-19T13:22:08.017Z,3.73
2018-07-19T13:24:36.220Z,3.70
2018-07-19T13:27:04.510Z,4.10
2018-07-19T13:29:32.797Z,3.97
2018-07-19T13:32:00.764Z,3.57
2018-07-19T13:34:28.991Z,3.70
2018-07-19T13:36:57.195Z,3.50
2018-07-19T13:39:25.466Z,3.97
2018-07-19T13:41:53.681Z,3.70
2018-07-19T13:44:22.071Z,3.70
2018-07-19T13:46:50.288Z,3.60
2018-07-19T13:49:18.552Z,3.47
2018-07-19T13:51:46.764Z,3.50
2018-07-19T13:54:25.076Z,3.70
2018-07-19T13:56:53.296Z,3.47
2018-07-19T13:59:21.539Z,3.43
2018-07-19T14:01:49.807Z,3.67
2018-07-19T14:04:18.037Z,3.30
2018-07-19T14:06:46.264Z,3.50
2018-07-19T14:09:15.416Z,3.70
2018-07-19T14:11:43.683Z,3.70
2018-07-19T14:14:11.895Z,3.20
2018-07-19T14:16:40.127Z,3.90
2018-07-19T14:19:08.376Z,3.30
2018-07-19T14:21:36.609Z,3.33
2018-07-19T14:24:04.851Z,3.70
2018-07-19T14:26:33.111Z,3.42
2018-07-19T14:29:01.341Z,3.50
2018-07-19T14:31:29.596Z,3.13
2018-07-19T14:33:57.623Z,2.80
2018-07-19T14:36:25.843Z,2.85
2018-07-19T14:38:54.070Z,2.77
2018-07-19T14:41:23.577Z,2.42
2018-07-19T14:43:51.850Z,2.17
2018-07-19T14:46:20.062Z,2.40
2018-07-19T14:48:48.312Z,1.95
2018-07-19T14:51:16.524Z,2.75
2018-07-19T14:53:44.759Z,2.35
2018-07-19T14:56:12.991Z,2.30
2018-07-19T14:58:41.228Z,2.33
2018-07-19T15:01:09.457Z,2.10
2018-07-19T15:03:38.124Z,2.42
2018-07-19T15:06:06.415Z,2.08
2018-07-19T15:08:34.626Z,2.30
2018-07-19T15:11:02.972Z,2.37
2018-07-19T15:13:31.320Z,2.35
2018-07-19T15:15:59.581Z,2.15
2018-07-19T15:18:27.844Z,2.40
2018-07-19T15:20:56.063Z,2.00
2018-07-19T15:23:24.273Z,1.95
2018-07-19T15:25:52.516Z,2.00
2018-07-19T15:28:20.729Z,2.05
2018-07-19T15:30:48.953Z,2.10
2018-07-19T15:33:17.165Z,2.00
2018-07-19T15:35:45.456Z,1.98
2018-07-19T15:38:13.672Z,1.85
2018-07-19T15:40:41.920Z,1.90
2018-07-19T15:43:10.427Z,2.22
2018-07-19T15:45:38.663Z,2.22
2018-07-19T15:48:06.876Z,2.15
2018-07-19T15:50:35.116Z,1.98
2018-07-19T15:53:03.370Z,2.10
2018-07-19T15:55:31.701Z,2.20
2018-07-19T15:57:59.927Z,2.20
2018-07-19T16:00:28.157Z,2.30
2018-07-19T16:02:56.495Z,2.30
2018-07-19T16:05:24.515Z,2.43
2018-07-19T16:07:52.748Z,1.97
2018-07-19T16:10:20.980Z,2.33
2018-07-19T16:12:49.183Z,1.90
2018-07-19T16:15:17.440Z,2.07
2018-07-19T16:17:45.674Z,2.20
2018-07-19T16:20:13.942Z,2.27
2018-07-19T16:22:42.180Z,1.92
2018-07-19T16:25:10.478Z,2.50
2018-07-19T16:27:38.695Z,2.15
2018-07-19T16:30:07.007Z,2.10
2018-07-19T16:32:35.224Z,2.20
2018-07-19T16:35:03.462Z,2.10
2018-07-19T16:37:31.692Z,2.00
2018-07-19T16:39:59.920Z,1.80
2018-07-19T16:42:28.131Z,2.63
2018-07-19T16:44:56.356Z,2.23
2018-07-19T16:47:24.560Z,2.00
2018-07-19T16:49:52.795Z,2.30
2018-07-19T16:52:21.000Z,1.93
2018-07-19T16:54:49.239Z,2.50
2018-07-19T16:57:17.443Z,2.00
2018-07-19T16:59:45.422Z,2.13
2018-07-19T17:02:13.663Z,2.03
2018-07-19T17:04:42.147Z,2.00
2018-07-19T17:07:10.396Z,1.90
2018-07-19T17:09:38.663Z,2.00
2018-07-19T17:12:06.868Z,1.97
2018-07-19T17:14:35.071Z,1.90
2018-07-19T17:17:03.342Z,2.10
2018-07-19T17:19:31.562Z,1.80
2018-07-19T17:21:59.784Z,1.97
2018-07-19T17:24:28.458Z,2.00
2018-07-19T17:26:56.680Z,2.00
2018-07-19T17:29:24.908Z,2.00
2018-07-19T17:31:53.147Z,2.00
2018-07-19T17:34:21.419Z,2.10
2018-07-19T17:36:49.636Z,2.10
2018-07-19T17:39:17.849Z,2.00
2018-07-19T17:41:46.128Z,2.00
2018-07-19T17:44:14.362Z,2.50
2018-07-19T17:46:42.604Z,2.60
2018-07-19T17:49:10.812Z,2.50
2018-07-19T17:51:39.060Z,2.60
2018-07-19T17:54:07.299Z,2.37
2018-07-19T17:56:35.595Z,2.40
2018-07-19T17:59:03.896Z,2.37
2018-07-19T18:01:32.371Z,2.40
2018-07-19T18:04:00.593Z,2.40
2018-07-19T18:06:28.855Z,2.50
2018-07-19T18:08:57.836Z,2.23
2018-07-19T18:11:26.089Z,2.57
2018-07-19T18:13:54.324Z,2.53
2018-07-19T18:16:22.573Z,2.30
2018-07-19T18:18:51.100Z,2.50
2018-07-19T18:21:19.340Z,2.43
2018-07-19T18:23:47.566Z,2.40
2018-07-19T18:26:15.804Z,2.27
2018-07-19T18:28:44.047Z,2.47
2018-07-19T18:31:12.301Z,2.30
2018-07-19T18:33:40.859Z,2.50
2018-07-19T18:36:09.147Z,2.23
2018-07-19T18:38:37.813Z,2.70
2018-07-19T18:41:05.881Z,2.70
2018-07-19T18:43:34.110Z,2.97
2018-07-19T18:46:02.524Z,2.67
2018-07-19T18:48:30.752Z,2.80
2018-07-19T18:50:59.013Z,3.23
2018-07-19T18:53:27.275Z,2.80
2018-07-19T18:55:55.492Z,2.83
2018-07-19T18:58:23.762Z,2.67
2018-07-19T19:00:51.980Z,2.80
2018-07-19T19:03:20.225Z,2.70
2018-07-19T19:05:48.459Z,3.33
2018-07-19T19:08:16.461Z,3.10
2018-07-19T19:10:44.704Z,2.90
2018-07-19T19:13:12.959Z,3.30
2018-07-19T19:15:41.192Z,3.00
2018-07-19T19:18:09.447Z,3.27
2018-07-19T19:20:37.676Z,3.60
2018-07-19T19:23:05.996Z,3.27
2018-07-19T19:25:34.229Z,3.50
2018-07-19T19:28:02.518Z,3.10
2018-07-19T19:30:36.204Z,3.07
2018-07-19T19:33:04.737Z,3.37
2018-07-19T19:35:32.960Z,3.60
2018-07-19T19:38:01.252Z,3.40
2018-07-19T19:40:29.491Z,3.43
2018-07-19T19:42:57.742Z,3.37
2018-07-19T19:45:25.965Z,3.50
2018-07-19T19:47:54.340Z,3.67
2018-07-19T19:50:22.570Z,3.27
2018-07-19T19:52:50.815Z,3.47
2018-07-19T19:55:19.170Z,3.77
2018-07-19T19:57:47.500Z,3.83
2018-07-19T20:00:15.725Z,3.83
2018-07-19T20:02:43.958Z,3.63
2018-07-19T20:05:12.163Z,3.90
2018-07-19T20:07:40.412Z,4.30
2018-07-19T20:10:08.617Z,3.53
2018-07-19T20:12:36.858Z,3.90
2018-07-19T20:15:05.176Z,4.07
2018-07-19T20:17:33.438Z,3.70
2018-07-19T20:20:01.673Z,4.00
2018-07-19T20:22:29.892Z,3.93
2018-07-19T20:24:58.111Z,4.40
2018-07-19T20:27:26.343Z,3.70
2018-07-19T20:29:54.569Z,3.80
2018-07-19T20:32:22.995Z,3.80
2018-07-19T20:34:51.209Z,4.07
2018-07-19T20:37:19.478Z,4.17
2018-07-19T20:39:47.693Z,4.20
2018-07-19T20:42:15.916Z,4.07
2018-07-19T20:44:44.131Z,3.40
2018-07-19T20:47:12.363Z,4.40
2018-07-19T20:49:40.592Z,3.87
2018-07-19T20:52:09.114Z,3.73
2018-07-19T20:54:37.336Z,3.80
2018-07-19T20:57:05.558Z,4.40
2018-07-19T20:59:33.780Z,4.17
2018-07-19T21:02:01.988Z,3.70
2018-07-19T21:04:30.226Z,4.40
2018-07-19T21:06:58.435Z,4.50
2018-07-19T21:09:26.673Z,3.97
2018-07-19T21:11:54.892Z,4.20
2018-07-19T21:14:23.136Z,4.47
2018-07-19T21:16:51.448Z,4.17
2018-07-19T21:19:19.685Z,4.40
2018-07-19T21:21:47.909Z,4.30
2018-07-19T21:24:16.161Z,4.40
2018-07-19T21:26:44.528Z,4.27
2018-07-19T21:29:12.778Z,4.17
2018-07-19T21:31:41.037Z,4.60
2018-07-19T21:34:09.275Z,4.50
2018-07-19T21:36:37.259Z,4.23
2018-07-19T21:39:08.053Z,4.00
2018-07-19T21:41:36.277Z,5.07
2018-07-19T21:44:04.508Z,4.63
2018-07-19T21:46:32.726Z,4.40
2018-07-19T21:49:00.961Z,4.07
2018-07-19T21:51:29.186Z,4.60
2018-07-19T21:53:57.493Z,4.30
2018-07-19T21:56:25.732Z,5.10
2018-07-19T21:58:53.952Z,4.77
2018-07-19T22:01:22.248Z,4.60
2018-07-19T22:03:50.467Z,4.73
2018-07-19T22:06:18.691Z,4.60
2018-07-19T22:08:46.955Z,4.87
2018-07-19T22:11:15.300Z,4.83
2018-07-19T22:13:43.507Z,4.67
2018-07-19T22:16:11.906Z,5.23
2018-07-19T22:18:40.182Z,5.13
2018-07-19T22:21:08.395Z,5.20
2018-07-19T22:23:36.621Z,4.83
2018-07-19T22:26:05.019Z,4.93
2018-07-19T22:28:33.191Z,5.00
2018-07-19T22:31:01.404Z,5.13
2018-07-19T22:33:29.623Z,5.30
2018-07-19T22:35:57.920Z,4.90
2018-07-19T22:38:26.161Z,5.53
2018-07-19T22:40:54.175Z,5.57
2018-07-19T22:43:22.230Z,5.50
2018-07-19T22:45:50.467Z,5.90
2018-07-19T22:48:18.677Z,5.70
2018-07-19T22:50:46.924Z,5.37
2018-07-19T22:53:15.160Z,5.40
2018-07-19T22:55:43.421Z,5.03
2018-07-19T22:58:11.647Z,5.30
2018-07-19T23:00:39.688Z,5.83
2018-07-19T23:03:07.912Z,6.27
2018-07-19T23:05:36.154Z,5.77
2018-07-19T23:08:04.429Z,5.37
2018-07-19T23:10:32.648Z,5.80
2018-07-19T23:13:00.876Z,5.50
2018-07-19T23:15:29.119Z,5.90
2018-07-19T23:17:57.545Z,5.13
2018-07-19T23:20:25.772Z,6.13
2018-07-19T23:22:56.923Z,6.23
2018-07-19T23:25:25.312Z,5.97
2018-07-19T23:27:54.294Z,5.73
2018-07-19T23:30:24.784Z,6.27
2018-07-19T23:32:53.008Z,6.30
2018-07-19T23:35:22.500Z,6.10
2018-07-19T23:37:52.517Z,6.40
2018-07-19T23:40:25.326Z,6.83
2018-07-19T23:43:31.163Z,7.23
2018-07-19T23:46:05.071Z,7.37
2018-07-19T23:48:33.286Z,7.93
2018-07-19T23:51:01.523Z,8.43
2018-07-19T23:53:29.742Z,8.03
2018-07-19T23:55:58.217Z,8.27
2018-07-19T23:58:26.431Z,8.73
